Time;durP1;ratioP1;P1;durP2;ratioP2;P2;SDS_P1;SDS_P2;PMS_P1;PMS_P2;Temp;Humidity;BMP_temperature;BMP_pressure;BME280_temperature;BME280_humidity;BME280_pressure;Samples;Min_cycle;Max_cycle;Signal;HPM_P1;HPM_P2
2022/12/22 03:25:52;;;;;;;1.80;1.70;;;22.30;55.30;;;;;;4892276;29;20477;-68
2022/12/22 03:28:22;;;;;;;1.60;1.50;;;22.30;55.30;;;;;;4895510;29;20493;-67
2022/12/22 03:30:55;;;;;;;1.40;1.30;;;22.30;55.30;;;;;;4898989;29;20516;-69
2022/12/22 03:33:24;;;;;;;1.90;1.80;;;22.30;55.20;;;;;;4894046;29;20478;-67
2022/12/22 03:35:52;;;;;;;1.60;1.50;;;22.30;55.20;;;;;;4899234;29;20496;-68
2022/12/22 03:38:21;;;;;;;1.77;1.67;;;22.30;55.10;;;;;;4893938;29;20950;-68
2022/12/22 03:40:49;;;;;;;2.27;1.90;;;22.30;55.00;;;;;;4898020;29;20573;-68
2022/12/22 03:49:11;;;;;;;2.07;1.97;;;22.30;55.00;;;;;;4890973;29;20462;-67
2022/12/22 03:51:44;;;;;;;2.13;1.90;;;22.30;55.00;;;;;;4893990;29;20457;-69
2022/12/22 03:54:13;;;;;;;1.80;1.70;;;22.30;55.00;;;;;;4893965;29;20466;-70
2022/12/22 03:56:42;;;;;;;1.93;1.73;;;22.30;55.00;;;;;;4898294;29;20824;-68
2022/12/22 03:59:11;;;;;;;1.70;1.60;;;22.30;55.00;;;;;;4888352;29;20947;-67
2022/12/22 04:01:41;;;;;;;1.63;1.53;;;22.30;55.00;;;;;;4893847;29;20946;-68
2022/12/22 04:04:12;;;;;;;1.90;1.80;;;22.30;55.00;;;;;;4892814;29;20468;-67
2022/12/22 04:06:40;;;;;;;1.57;1.47;;;22.30;55.00;;;;;;4894175;29;20553;-67
2022/12/22 04:09:08;;;;;;;1.93;1.83;;;22.30;55.10;;;;;;4897635;29;20453;-67
2022/12/22 04:14:23;;;;;;;1.73;1.63;;;22.20;55.00;;;;;;4890477;29;20465;-67
2022/12/22 04:17:00;;;;;;;1.50;1.40;;;22.20;55.00;;;;;;4896252;29;20449;-69
2022/12/22 04:19:31;;;;;;;1.50;1.40;;;22.20;55.10;;;;;;4886386;29;20991;-67
2022/12/22 04:22:00;;;;;;;1.73;1.63;;;22.20;55.10;;;;;;4897698;29;20446;-67
2022/12/22 04:24:28;;;;;;;1.90;1.80;;;22.20;55.10;;;;;;4896728;29;20489;-69
2022/12/22 04:26:56;;;;;;;1.67;1.57;;;22.20;55.10;;;;;;4897144;29;20899;-67
2022/12/22 04:29:24;;;;;;;2.13;1.93;;;22.30;55.10;;;;;;4889081;29;20944;-67
2022/12/22 04:31:52;;;;;;;1.67;1.57;;;22.20;55.00;;;;;;4894059;29;20466;-67
2022/12/22 04:34:21;;;;;;;1.70;1.60;;;22.20;55.00;;;;;;4891807;29;21157;-67
2022/12/22 04:36:50;;;;;;;1.63;1.53;;;22.30;55.10;;;;;;4896717;29;20796;-67
2022/12/22 04:39:18;;;;;;;1.30;1.30;;;22.20;55.00;;;;;;4891949;29;20462;-68
2022/12/22 04:41:46;;;;;;;1.33;1.33;;;22.20;55.10;;;;;;4896952;29;20500;-67
2022/12/22 04:44:14;;;;;;;1.40;1.30;;;22.20;55.10;;;;;;4894070;29;20441;-68
2022/12/22 04:46:42;;;;;;;1.50;1.40;;;22.20;55.10;;;;;;4890160;29;20549;-68
2022/12/22 04:49:11;;;;;;;1.47;1.37;;;22.20;55.10;;;;;;4893191;29;20473;-67
2022/12/22 04:51:39;;;;;;;1.20;1.10;;;22.30;55.10;;;;;;4893348;29;20536;-68
2022/12/22 04:54:08;;;;;;;1.40;1.40;;;22.30;55.10;;;;;;4892897;29;20463;-69
2022/12/22 04:56:36;;;;;;;1.17;1.10;;;22.30;55.10;;;;;;4895934;29;20541;-67
2022/12/22 04:59:04;;;;;;;1.33;1.30;;;22.30;55.00;;;;;;4893693;29;20463;-69
2022/12/22 05:01:33;;;;;;;1.60;1.50;;;22.30;55.00;;;;;;4893814;29;20949;-67
2022/12/22 05:04:01;;;;;;;1.30;1.20;;;22.30;55.00;;;;;;4892470;29;20504;-68
2022/12/22 05:06:29;;;;;;;1.37;1.30;;;22.30;55.00;;;;;;4899384;29;20565;-67
2022/12/22 05:08:57;;;;;;;1.40;1.40;;;22.30;55.00;;;;;;4891222;29;21073;-69
2022/12/22 05:11:26;;;;;;;1.10;1.10;;;22.20;55.00;;;;;;4899922;29;20472;-67
2022/12/22 05:13:55;;;;;;;0.97;0.97;;;22.30;55.00;;;;;;4896585;29;20457;-67
2022/12/22 05:16:26;;;;;;;1.53;1.43;;;22.30;55.00;;;;;;4895223;29;21011;-67
2022/12/22 05:18:54;;;;;;;1.33;1.23;;;22.30;55.00;;;;;;4900571;29;20952;-67
2022/12/22 05:21:23;;;;;;;1.47;1.37;;;22.30;55.00;;;;;;4890837;29;20442;-67
2022/12/22 05:23:51;;;;;;;1.20;1.10;;;22.30;55.00;;;;;;4893420;29;20469;-67
2022/12/22 05:26:19;;;;;;;1.80;1.70;;;22.30;55.00;;;;;;4896551;29;21163;-69
2022/12/22 05:28:49;;;;;;;1.67;1.43;;;22.30;55.00;;;;;;4892594;29;20533;-68
2022/12/22 05:31:20;;;;;;;1.50;1.40;;;22.30;55.00;;;;;;4888512;29;20525;-69
2022/12/22 05:33:48;;;;;;;1.13;1.13;;;22.30;55.00;;;;;;4887680;29;20558;-68
2022/12/22 05:36:17;;;;;;;2.17;1.30;;;22.30;54.90;;;;;;4889783;29;20962;-68
2022/12/22 05:38:47;;;;;;;1.40;1.30;;;22.30;54.90;;;;;;4888446;29;20576;-68
2022/12/22 05:41:15;;;;;;;1.60;1.50;;;22.40;54.80;;;;;;4889269;29;20513;-67
2022/12/22 05:43:44;;;;;;;1.30;1.20;;;22.40;54.80;;;;;;4895938;29;20498;-68
2022/12/22 05:46:13;;;;;;;1.10;1.10;;;22.40;54.80;;;;;;4891787;29;21027;-68
2022/12/22 05:48:41;;;;;;;1.40;1.27;;;22.40;54.90;;;;;;4890294;29;20934;-68
2022/12/22 05:51:10;;;;;;;1.37;1.30;;;22.40;54.90;;;;;;4890277;29;20455;-68
2022/12/22 05:53:39;;;;;;;1.37;1.30;;;22.40;54.90;;;;;;4892542;29;20962;-69
2022/12/22 05:56:08;;;;;;;1.07;1.07;;;22.40;54.80;;;;;;4890812;29;20455;-71
2022/12/22 05:58:38;;;;;;;1.57;1.47;;;22.40;54.80;;;;;;4886307;29;20472;-67
2022/12/22 06:01:07;;;;;;;1.13;1.13;;;22.40;54.80;;;;;;4887234;29;20573;-68
2022/12/22 06:03:36;;;;;;;1.60;1.50;;;22.40;55.10;;;;;;4884834;29;20512;-68
2022/12/22 06:06:05;;;;;;;2.53;1.87;;;22.40;55.30;;;;;;4890381;29;20568;-68
2022/12/22 06:08:33;;;;;;;1.47;1.30;;;22.40;55.40;;;;;;4890032;29;20466;-69
2022/12/22 06:11:01;;;;;;;1.40;1.33;;;22.40;55.60;;;;;;4885526;29;20785;-68
2022/12/22 06:13:29;;;;;;;1.43;1.33;;;22.40;55.80;;;;;;4885714;29;20545;-67
2022/12/22 06:15:57;;;;;;;1.90;1.40;;;22.30;56.10;;;;;;4889261;29;21007;-68
2022/12/22 06:18:27;;;;;;;4.50;1.40;;;22.30;56.30;;;;;;4885292;29;20542;-69
2022/12/22 06:20:56;;;;;;;3.37;1.40;;;22.30;56.40;;;;;;4891123;29;20557;-67
2022/12/22 06:23:24;;;;;;;1.77;1.67;;;22.30;56.60;;;;;;4887380;29;20474;-71
2022/12/22 06:25:56;;;;;;;1.53;1.20;;;22.30;56.70;;;;;;4891057;29;21134;-68
2022/12/22 06:28:25;;;;;;;2.00;1.73;;;22.30;56.80;;;;;;4882705;29;21001;-68
2022/12/22 06:30:53;;;;;;;2.10;1.90;;;22.30;56.80;;;;;;4893717;29;20442;-67
2022/12/22 06:33:22;;;;;;;2.73;1.27;;;22.20;56.70;;;;;;4887446;29;20510;-69
2022/12/22 06:35:50;;;;;;;1.70;1.60;;;22.30;57.00;;;;;;4889611;29;20465;-70
2022/12/22 06:38:27;;;;;;;2.23;1.40;;;22.30;57.00;;;;;;4889849;29;20581;-69
2022/12/22 06:40:56;;;;;;;1.87;1.47;;;22.30;57.00;;;;;;4889451;29;20534;-71
2022/12/22 06:43:23;;;;;;;1.47;1.10;;;22.30;56.90;;;;;;4888574;29;20499;-68
2022/12/22 06:45:51;;;;;;;1.43;1.20;;;22.30;57.10;;;;;;4887543;29;20847;-69
2022/12/22 06:48:20;;;;;;;1.90;1.53;;;22.30;56.90;;;;;;4892846;29;20554;-69
2022/12/22 06:50:48;;;;;;;2.80;1.33;;;22.30;56.90;;;;;;4894552;29;20455;-69
2022/12/22 06:53:17;;;;;;;1.50;1.40;;;22.30;56.90;;;;;;4883867;29;20451;-68
2022/12/22 06:55:47;;;;;;;3.10;1.60;;;22.30;56.80;;;;;;4889491;29;20873;-71
2022/12/22 06:58:15;;;;;;;2.13;1.73;;;22.30;56.80;;;;;;4891745;29;20927;-68
2022/12/22 07:00:47;;;;;;;1.77;1.67;;;22.30;56.80;;;;;;4888026;29;20942;-69
2022/12/22 07:03:15;;;;;;;1.90;1.60;;;22.30;56.80;;;;;;4886615;29;20474;-71
2022/12/22 07:05:44;;;;;;;1.87;1.33;;;22.30;56.80;;;;;;4886417;29;20545;-70
2022/12/22 07:08:12;;;;;;;1.53;1.33;;;22.30;57.10;;;;;;4887212;29;20474;-72
2022/12/22 07:10:58;;;;;;;2.77;2.20;;;22.30;57.10;;;;;;4892773;29;20514;-69
2022/12/22 07:13:30;;;;;;;1.90;1.70;;;22.30;57.30;;;;;;4891853;29;20777;-68
2022/12/22 07:15:59;;;;;;;2.60;1.60;;;22.30;57.60;;;;;;4895874;29;20462;-68
2022/12/22 07:18:30;;;;;;;5.30;1.83;;;22.30;57.60;;;;;;4896009;29;21196;-68
2022/12/22 07:21:00;;;;;;;3.43;2.10;;;22.30;57.60;;;;;;4896494;29;20459;-69
2022/12/22 07:23:29;;;;;;;8.70;2.43;;;22.30;57.70;;;;;;4879665;29;20963;-67
2022/12/22 07:25:57;;;;;;;2.67;1.53;;;22.30;57.90;;;;;;4882426;29;20815;-67
2022/12/22 07:28:27;;;;;;;6.53;2.07;;;22.30;58.00;;;;;;4879604;29;20513;-68
2022/12/22 07:30:55;;;;;;;3.90;2.17;;;22.30;58.00;;;;;;4878487;29;20455;-68
2022/12/22 07:33:24;;;;;;;12.50;2.47;;;22.30;58.20;;;;;;4881419;29;20458;-69
2022/12/22 07:36:02;;;;;;;2.10;1.63;;;22.30;58.30;;;;;;4881117;29;20872;-68
2022/12/22 07:38:35;;;;;;;2.10;1.57;;;22.30;58.50;;;;;;4878339;29;20519;-68
2022/12/22 07:42:43;;;;;;;4.47;1.73;;;22.30;58.40;;;;;;4885820;29;20593;-70
2022/12/22 07:43:53;;;;;;;2.00;1.47;;;22.30;58.20;;;;;;4881815;29;20463;-68
2022/12/22 07:46:22;;;;;;;7.70;1.73;;;22.30;58.10;;;;;;4888077;29;20565;-68
2022/12/22 07:51:38;;;;;;;6.30;1.73;;;22.30;58.30;;;;;;4895560;29;20477;-68
2022/12/22 07:54:07;;;;;;;2.37;1.63;;;22.30;58.30;;;;;;4881852;29;21436;-68
2022/12/22 07:56:36;;;;;;;3.30;2.00;;;22.30;58.50;;;;;;4883858;29;20462;-69
2022/12/22 07:59:06;;;;;;;2.50;1.60;;;22.30;58.50;;;;;;4886597;29;20546;-67
2022/12/22 08:01:34;;;;;;;3.50;1.83;;;22.30;58.50;;;;;;4880199;29;20480;-71
2022/12/22 08:04:03;;;;;;;1.73;1.37;;;22.30;58.50;;;;;;4885044;29;20454;-67
2022/12/22 08:06:33;;;;;;;3.30;1.57;;;22.30;58.30;;;;;;4882166;29;20475;-69
2022/12/22 08:09:02;;;;;;;3.70;1.83;;;22.30;58.30;;;;;;4880067;29;20488;-68
2022/12/22 08:11:30;;;;;;;2.03;1.63;;;22.30;58.20;;;;;;4881210;29;20470;-69
2022/12/22 08:13:58;;;;;;;2.50;1.40;;;22.30;58.30;;;;;;4880105;29;20463;-68
2022/12/22 08:16:30;;;;;;;2.20;1.60;;;22.30;58.20;;;;;;4888704;29;20466;-68
2022/12/22 08:18:58;;;;;;;2.57;1.50;;;22.30;58.10;;;;;;4885618;29;20522;-68
2022/12/22 08:21:26;;;;;;;3.03;1.77;;;22.30;58.20;;;;;;4892740;29;20466;-67
2022/12/22 08:23:55;;;;;;;2.83;1.60;;;22.30;58.30;;;;;;4896285;29;21030;-68
2022/12/22 08:26:27;;;;;;;3.00;1.50;;;22.30;58.30;;;;;;4897088;29;20540;-67
2022/12/22 08:28:59;;;;;;;3.10;2.30;;;22.30;58.30;;;;;;4893689;29;20458;-68
2022/12/22 08:31:30;;;;;;;4.30;3.47;;;22.30;58.30;;;;;;4893751;29;20454;-68
2022/12/22 08:34:02;;;;;;;2.50;1.73;;;22.30;58.20;;;;;;4895195;29;21009;-67
2022/12/22 08:36:32;;;;;;;1.70;1.40;;;22.30;58.10;;;;;;4897138;29;20542;-72
2022/12/22 08:39:01;;;;;;;2.70;1.53;;;22.30;58.20;;;;;;4890130;29;20449;-68
2022/12/22 08:44:16;;;;;;;4.57;1.57;;;22.30;58.20;;;;;;4889945;29;20462;-67
2022/12/22 08:46:46;;;;;;;1.33;1.23;;;22.30;58.20;;;;;;4894616;29;20497;-71
2022/12/22 08:49:15;;;;;;;4.93;1.70;;;22.40;58.10;;;;;;4894861;29;20451;-68
2022/12/22 08:51:43;;;;;;;1.33;1.10;;;22.40;58.10;;;;;;4895259;29;20440;-71
2022/12/22 08:54:12;;;;;;;2.17;1.60;;;22.40;58.10;;;;;;4889231;29;20480;-68
2022/12/22 08:56:40;;;;;;;1.50;1.30;;;22.40;58.10;;;;;;4889932;29;20553;-73
2022/12/22 08:59:09;;;;;;;2.50;1.53;;;22.40;58.00;;;;;;4896036;29;20557;-67
2022/12/22 09:01:41;;;;;;;3.50;1.33;;;22.40;58.00;;;;;;4889179;29;20485;-69
2022/12/22 09:04:12;;;;;;;1.33;0.90;;;22.50;57.90;;;;;;4896192;29;20457;-67
2022/12/22 09:06:41;;;;;;;2.23;1.40;;;22.50;57.90;;;;;;4896736;29;20480;-73
2022/12/22 09:09:11;;;;;;;5.07;1.30;;;22.50;57.80;;;;;;4897345;29;20486;-67
2022/12/22 09:11:40;;;;;;;1.23;1.00;;;22.50;57.80;;;;;;4896386;29;20457;-68
2022/12/22 09:14:10;;;;;;;1.27;1.17;;;22.50;57.70;;;;;;4896593;29;20465;-67
2022/12/22 09:16:39;;;;;;;1.00;0.90;;;22.50;57.70;;;;;;4895139;29;20493;-67
2022/12/22 09:19:07;;;;;;;1.73;1.30;;;22.50;57.70;;;;;;4880773;29;20454;-70
2022/12/22 09:21:37;;;;;;;1.37;1.27;;;22.50;57.70;;;;;;4896378;29;20465;-68
2022/12/22 09:24:07;;;;;;;3.73;1.30;;;22.50;57.60;;;;;;4888170;29;20570;-67
2022/12/22 09:26:35;;;;;;;2.90;1.40;;;22.50;57.60;;;;;;4882564;29;20459;-67
2022/12/22 09:29:04;;;;;;;1.30;1.20;;;22.50;57.60;;;;;;4885501;29;20480;-67
2022/12/22 09:31:32;;;;;;;1.50;1.40;;;22.50;57.60;;;;;;4883520;29;20561;-68
2022/12/22 09:34:01;;;;;;;1.33;1.10;;;22.50;57.60;;;;;;4886931;29;20459;-70
2022/12/22 09:36:32;;;;;;;0.87;0.87;;;22.50;57.70;;;;;;4887959;29;20552;-67
2022/12/22 09:39:06;;;;;;;1.33;1.23;;;22.50;57.70;;;;;;4888728;29;20446;-69
2022/12/22 09:41:37;;;;;;;2.47;1.50;;;22.50;57.70;;;;;;4884771;29;20969;-67
2022/12/22 09:44:11;;;;;;;1.20;1.10;;;22.40;57.70;;;;;;4891722;29;20482;-67
2022/12/22 09:46:40;;;;;;;2.13;0.93;;;22.40;57.70;;;;;;4887355;29;20940;-67
2022/12/22 09:49:12;;;;;;;1.20;1.10;;;22.40;57.70;;;;;;4886926;29;20486;-68
2022/12/22 09:51:43;;;;;;;1.70;1.10;;;22.40;57.70;;;;;;4884188;29;21015;-74
2022/12/22 09:54:14;;;;;;;1.03;1.03;;;22.40;57.80;;;;;;4893680;29;20541;-68
2022/12/22 09:56:43;;;;;;;0.80;0.80;;;22.40;57.80;;;;;;4889782;29;20490;-68
2022/12/22 09:59:12;;;;;;;1.30;1.23;;;22.50;57.70;;;;;;4888427;29;20511;-68
2022/12/22 10:02:11;;;;;;;1.10;0.80;;;22.50;57.60;;;;;;4884180;29;20471;-73
2022/12/22 10:04:56;;;;;;;1.03;1.00;;;22.50;57.60;;;;;;4886804;29;20987;-69
2022/12/22 10:07:31;;;;;;;1.77;1.30;;;22.50;57.50;;;;;;4885404;29;20473;-68
2022/12/22 10:10:05;;;;;;;0.80;0.80;;;22.60;57.50;;;;;;4887204;29;20473;-68
2022/12/22 10:12:33;;;;;;;1.60;1.00;;;22.60;57.50;;;;;;4889465;29;20453;-67
2022/12/22 10:15:02;;;;;;;2.83;1.10;;;22.60;57.40;;;;;;4895014;29;20550;-68
2022/12/22 10:17:32;;;;;;;1.30;1.00;;;22.50;57.40;;;;;;4893808;29;20957;-69
2022/12/22 10:20:19;;;;;;;1.40;1.30;;;22.50;57.50;;;;;;4896162;29;20498;-68
2022/12/22 10:22:49;;;;;;;1.37;1.27;;;22.50;57.60;;;;;;4888400;29;20495;-67
2022/12/22 10:25:32;;;;;;;2.00;1.50;;;22.50;57.60;;;;;;4884824;29;20482;-72
2022/12/22 10:28:23;;;;;;;1.10;0.83;;;22.50;57.60;;;;;;4885865;29;20593;-72
2022/12/22 10:31:14;;;;;;;1.63;1.30;;;22.50;57.70;;;;;;4887295;29;20462;-69
2022/12/22 10:33:43;;;;;;;1.70;1.00;;;22.50;57.60;;;;;;4892490;29;20571;-67
2022/12/22 10:36:19;;;;;;;1.57;1.47;;;22.50;57.60;;;;;;4886176;29;20573;-68
2022/12/22 10:38:58;;;;;;;1.10;1.00;;;22.40;57.50;;;;;;4894937;29;20461;-67
2022/12/22 10:41:31;;;;;;;1.17;1.10;;;22.40;57.70;;;;;;4890600;29;21003;-67
2022/12/22 10:44:02;;;;;;;2.03;1.57;;;22.40;57.60;;;;;;4889894;29;20463;-67
2022/12/22 10:46:33;;;;;;;0.93;0.93;;;22.40;57.70;;;;;;4898664;29;20485;-69
2022/12/22 10:49:24;;;;;;;1.23;1.10;;;22.40;57.60;;;;;;4898905;29;20954;-68
2022/12/22 10:51:55;;;;;;;1.43;1.33;;;22.40;57.60;;;;;;4889045;29;20510;-68
2022/12/22 10:54:34;;;;;;;0.93;0.90;;;22.30;57.60;;;;;;4888824;29;20963;-70
2022/12/22 10:57:20;;;;;;;0.70;0.70;;;22.30;57.60;;;;;;4885010;29;20485;-71
2022/12/22 10:59:50;;;;;;;2.13;1.30;;;22.30;57.60;;;;;;4883181;29;20553;-68
2022/12/22 11:02:27;;;;;;;1.90;1.20;;;22.30;57.70;;;;;;4888282;29;20459;-68
2022/12/22 11:05:02;;;;;;;1.10;1.03;;;22.30;57.60;;;;;;4890464;29;20459;-68
2022/12/22 11:07:32;;;;;;;2.00;1.00;;;22.30;57.60;;;;;;4891063;29;20482;-68
2022/12/22 11:10:01;;;;;;;1.30;1.20;;;22.30;57.60;;;;;;4888793;29;20641;-67
2022/12/22 11:12:43;;;;;;;1.20;0.90;;;22.30;57.60;;;;;;4889580;29;20470;-68
2022/12/22 11:15:23;;;;;;;1.67;1.13;;;22.30;57.60;;;;;;4897086;29;20566;-71
2022/12/22 11:18:01;;;;;;;8.57;1.00;;;22.40;57.60;;;;;;4893358;29;20461;-67
2022/12/22 11:20:46;;;;;;;1.27;1.10;;;22.40;57.60;;;;;;4898306;29;20826;-67
2022/12/22 11:23:21;;;;;;;1.23;1.03;;;22.40;57.60;;;;;;4896639;29;20500;-67
2022/12/22 11:25:59;;;;;;;1.77;1.10;;;22.40;57.60;;;;;;4898029;29;20468;-67
2022/12/22 11:28:50;;;;;;;3.70;1.37;;;22.40;57.50;;;;;;4898108;29;20470;-68
2022/12/22 11:31:41;;;;;;;1.17;1.07;;;22.40;57.50;;;;;;4897945;29;20462;-67
2022/12/22 11:34:20;;;;;;;1.23;1.00;;;22.40;57.50;;;;;;4894187;29;20797;-67
2022/12/22 11:37:02;;;;;;;1.30;1.20;;;22.40;57.50;;;;;;4886384;29;20480;-68
2022/12/22 11:39:40;;;;;;;1.87;1.37;;;22.40;57.50;;;;;;4894234;29;20465;-67
2022/12/22 11:42:29;;;;;;;2.67;1.50;;;22.40;57.60;;;;;;4895434;29;20518;-69
2022/12/22 11:45:11;;;;;;;1.90;1.77;;;22.40;57.50;;;;;;4897739;29;20486;-67
2022/12/22 11:47:47;;;;;;;3.00;1.80;;;22.40;57.50;;;;;;4898295;29;21017;-68
2022/12/22 11:50:34;;;;;;;3.00;2.03;;;22.30;57.50;;;;;;4896196;29;20899;-71
2022/12/22 11:53:41;;;;;;;5.40;2.40;;;22.30;57.60;;;;;;4891421;29;20465;-67
2022/12/22 11:56:20;;;;;;;2.23;2.00;;;22.30;57.50;;;;;;4896708;29;20457;-68
2022/12/22 11:59:03;;;;;;;3.90;2.00;;;22.30;57.50;;;;;;4895550;29;20450;-68
2022/12/22 12:01:56;;;;;;;2.60;2.37;;;22.30;57.60;;;;;;4889533;29;20478;-68
2022/12/22 12:04:58;;;;;;;2.63;2.43;;;22.30;57.60;;;;;;4889562;29;20469;-69
2022/12/22 12:07:31;;;;;;;1.97;1.87;;;22.30;57.60;;;;;;4895351;29;20456;-70
2022/12/22 12:10:12;;;;;;;2.60;2.40;;;22.30;57.60;;;;;;4888665;29;20520;-67
2022/12/22 12:12:52;;;;;;;3.03;2.37;;;22.30;57.70;;;;;;4889053;29;20465;-67
2022/12/22 12:15:31;;;;;;;3.30;2.30;;;22.30;57.60;;;;;;4890355;29;20525;-68
2022/12/22 12:18:16;;;;;;;2.90;2.07;;;22.30;57.70;;;;;;4890352;29;20451;-68
2022/12/22 12:20:53;;;;;;;2.83;2.13;;;22.30;57.80;;;;;;4891370;29;20472;-68
2022/12/22 12:23:50;;;;;;;2.50;1.90;;;22.30;57.80;;;;;;4889261;29;20445;-68
2022/12/22 12:26:24;;;;;;;3.73;2.23;;;22.30;57.80;;;;;;4864793;29;20484;-68
2022/12/22 12:29:06;;;;;;;2.30;2.00;;;22.30;57.90;;;;;;4887039;29;20562;-72
2022/12/22 12:31:40;;;;;;;2.10;1.57;;;22.30;57.70;;;;;;4894251;29;20457;-67
2022/12/22 12:34:14;;;;;;;2.57;2.37;;;22.30;57.80;;;;;;4887678;29;20454;-69
2022/12/22 12:36:48;;;;;;;1.97;1.50;;;22.30;57.60;;;;;;4890024;29;20489;-74
2022/12/22 12:39:24;;;;;;;3.00;1.83;;;22.30;57.60;;;;;;4893407;29;20549;-72
2022/12/22 12:42:00;;;;;;;2.30;2.00;;;22.40;57.60;;;;;;4888807;29;20506;-68
2022/12/22 12:44:32;;;;;;;2.43;1.83;;;22.40;57.60;;;;;;4892056;29;20801;-69
2022/12/22 12:47:26;;;;;;;2.77;1.60;;;22.40;57.50;;;;;;4884521;29;20471;-71
2022/12/22 12:50:01;;;;;;;3.43;2.20;;;22.40;57.50;;;;;;4883026;29;20493;-71
2022/12/22 12:53:17;;;;;;;2.50;2.00;;;22.40;57.50;;;;;;4888400;29;20466;-70
2022/12/22 12:55:55;;;;;;;2.60;1.73;;;22.40;57.50;;;;;;4890485;29;20475;-67
2022/12/22 12:58:52;;;;;;;1.83;1.73;;;22.40;57.50;;;;;;4894474;29;20458;-69
2022/12/22 13:01:57;;;;;;;3.37;1.67;;;22.40;57.40;;;;;;4894164;29;20562;-67
2022/12/22 13:05:14;;;;;;;2.83;1.80;;;22.40;57.40;;;;;;4895085;29;20462;-67
2022/12/22 13:08:16;;;;;;;2.30;1.53;;;22.40;57.50;;;;;;4882328;29;20549;-68
2022/12/22 13:11:22;;;;;;;2.00;1.90;;;22.40;57.40;;;;;;4895213;29;20557;-66
2022/12/22 13:14:11;;;;;;;2.60;1.60;;;22.50;57.40;;;;;;4893911;29;20482;-67
2022/12/22 13:16:39;;;;;;;2.60;1.70;;;22.50;57.40;;;;;;4891578;29;20463;-69
2022/12/22 13:19:20;;;;;;;2.77;1.60;;;22.50;57.30;;;;;;4893645;29;20881;-66
2022/12/22 13:21:48;;;;;;;2.73;1.60;;;22.50;57.30;;;;;;4892932;29;20545;-67
2022/12/22 13:24:27;;;;;;;2.43;1.80;;;22.50;57.30;;;;;;4891690;29;20462;-69
2022/12/22 13:27:03;;;;;;;2.30;1.70;;;22.50;57.30;;;;;;4893633;29;20464;-68
2022/12/22 13:29:41;;;;;;;1.70;1.30;;;22.50;57.30;;;;;;4890631;29;20549;-66
2022/12/22 13:32:25;;;;;;;1.97;1.47;;;22.50;57.40;;;;;;4891165;29;20478;-67
2022/12/22 13:35:00;;;;;;;1.40;1.30;;;22.50;57.30;;;;;;4895103;29;20446;-67
2022/12/22 13:37:52;;;;;;;2.10;1.53;;;22.50;57.30;;;;;;4888720;29;20493;-68
2022/12/22 13:40:24;;;;;;;3.13;1.60;;;22.50;57.30;;;;;;4886499;29;20494;-68
2022/12/22 13:42:55;;;;;;;3.17;1.63;;;22.50;57.30;;;;;;4884451;29;20606;-68
2022/12/22 13:45:36;;;;;;;4.30;2.53;;;22.50;57.30;;;;;;4881424;29;20472;-68
2022/12/22 13:48:16;;;;;;;2.47;2.00;;;22.60;57.30;;;;;;4880759;29;20463;-68
2022/12/22 13:50:47;;;;;;;1.70;1.23;;;22.60;57.20;;;;;;4886378;29;20836;-68
2022/12/22 13:53:19;;;;;;;1.70;1.60;;;22.60;57.20;;;;;;4896631;29;20546;-69
2022/12/22 13:56:16;;;;;;;2.00;1.77;;;22.60;57.20;;;;;;4891255;29;20456;-66
2022/12/22 13:58:46;;;;;;;1.77;1.63;;;22.60;57.00;;;;;;4893786;29;20537;-67
2022/12/22 14:01:17;;;;;;;2.53;1.77;;;22.60;57.00;;;;;;4877994;29;20487;-65
2022/12/22 14:03:50;;;;;;;3.37;1.67;;;22.60;57.00;;;;;;4891379;29;20442;-67
2022/12/22 14:06:30;;;;;;;3.57;2.07;;;22.60;57.00;;;;;;4891021;29;20454;-66
2022/12/22 14:09:12;;;;;;;3.53;1.57;;;22.60;57.00;;;;;;4891486;29;20537;-67
2022/12/22 14:11:44;;;;;;;2.50;1.47;;;22.60;56.90;;;;;;4880511;29;20470;-71
2022/12/22 14:14:24;;;;;;;5.47;2.17;;;22.60;56.90;;;;;;4892593;29;20474;-67
2022/12/22 14:16:55;;;;;;;8.60;2.13;;;22.60;56.90;;;;;;4893785;29;20463;-69
2022/12/22 14:19:25;;;;;;;3.37;1.60;;;22.60;56.90;;;;;;4889558;29;20483;-66
2022/12/22 14:22:02;;;;;;;4.80;1.70;;;22.60;57.00;;;;;;4891947;29;20936;-67
2022/12/22 14:24:35;;;;;;;2.10;1.37;;;22.60;57.00;;;;;;4892034;29;20462;-67
2022/12/22 14:27:17;;;;;;;1.73;1.63;;;22.60;57.00;;;;;;4885683;29;20458;-66
2022/12/22 14:29:45;;;;;;;3.60;2.03;;;22.50;57.10;;;;;;4893852;29;20549;-67
2022/12/22 14:32:34;;;;;;;6.27;1.93;;;22.50;57.10;;;;;;4892389;29;20455;-68
2022/12/22 14:35:02;;;;;;;2.60;1.60;;;22.50;57.10;;;;;;4885874;29;20529;-69
2022/12/22 14:37:30;;;;;;;2.53;2.23;;;22.50;57.10;;;;;;4893351;29;20526;-66
2022/12/22 14:40:00;;;;;;;1.97;1.60;;;22.50;57.20;;;;;;4892741;29;20499;-67
2022/12/22 14:42:31;;;;;;;3.53;2.10;;;22.50;57.10;;;;;;4892124;29;20544;-66
2022/12/22 14:44:59;;;;;;;6.33;2.20;;;22.50;57.20;;;;;;4892399;29;20436;-66
2022/12/22 14:47:27;;;;;;;4.17;1.93;;;22.50;57.20;;;;;;4890059;29;20611;-70
2022/12/22 14:49:59;;;;;;;3.23;2.03;;;22.40;57.30;;;;;;4888485;29;20482;-71
2022/12/22 14:52:36;;;;;;;3.80;2.80;;;22.50;57.20;;;;;;4882235;29;20459;-71
2022/12/22 14:55:06;;;;;;;3.60;1.77;;;22.50;57.30;;;;;;4896508;29;20477;-73
2022/12/22 14:57:39;;;;;;;3.60;1.77;;;22.50;57.20;;;;;;4886567;29;21009;-71
2022/12/22 15:00:26;;;;;;;6.20;2.57;;;22.50;57.20;;;;;;4893223;29;20462;-71
2022/12/22 15:02:56;;;;;;;6.73;1.73;;;22.50;57.20;;;;;;4897872;29;20830;-72
2022/12/22 15:05:27;;;;;;;5.40;2.07;;;22.50;57.20;;;;;;4895885;29;20537;-71
2022/12/22 15:07:57;;;;;;;2.60;1.83;;;22.50;57.20;;;;;;4896750;29;20522;-71
2022/12/22 15:10:40;;;;;;;4.40;2.07;;;22.50;57.20;;;;;;4897540;29;20473;-71
2022/12/22 15:13:22;;;;;;;5.37;1.80;;;22.50;57.20;;;;;;4897275;29;20515;-71
2022/12/22 15:15:51;;;;;;;2.87;2.00;;;22.50;57.20;;;;;;4896879;29;21024;-71
2022/12/22 15:18:24;;;;;;;1.80;1.70;;;22.50;57.20;;;;;;4897287;29;20449;-71
2022/12/22 15:20:52;;;;;;;3.17;1.97;;;22.50;57.10;;;;;;4896178;29;20454;-71
2022/12/22 15:23:20;;;;;;;4.10;2.20;;;22.50;57.10;;;;;;4895949;29;20801;-71
2022/12/22 15:25:49;;;;;;;4.13;1.60;;;22.50;57.10;;;;;;4897516;29;20470;-71
2022/12/22 15:28:18;;;;;;;5.03;2.80;;;22.40;57.10;;;;;;4889889;29;20485;-71
2022/12/22 15:30:46;;;;;;;3.10;1.83;;;22.40;57.10;;;;;;4877592;29;20477;-71
2022/12/22 15:33:17;;;;;;;2.93;2.27;;;22.40;57.10;;;;;;4882220;29;20466;-71
2022/12/22 15:35:46;;;;;;;3.47;1.70;;;22.40;57.10;;;;;;4898032;29;20467;-72
2022/12/22 15:38:16;;;;;;;2.57;1.60;;;22.40;57.10;;;;;;4897838;29;20485;-71
2022/12/22 15:40:45;;;;;;;2.53;1.40;;;22.40;57.20;;;;;;4891731;29;20484;-71
2022/12/22 15:43:13;;;;;;;2.27;1.90;;;22.40;57.20;;;;;;4888086;29;20503;-72
2022/12/22 15:46:05;;;;;;;2.43;1.90;;;22.40;57.20;;;;;;4897780;29;20458;-71
2022/12/22 15:48:36;;;;;;;2.63;2.43;;;22.40;57.20;;;;;;4894520;29;20845;-75
2022/12/22 15:51:07;;;;;;;2.37;1.77;;;22.40;57.20;;;;;;4890596;29;20509;-71
2022/12/22 15:53:36;;;;;;;3.50;2.23;;;22.40;57.20;;;;;;4885174;29;20915;-70
2022/12/22 15:56:06;;;;;;;3.53;2.13;;;22.40;57.20;;;;;;4897726;29;20984;-75
2022/12/22 15:58:39;;;;;;;6.10;1.53;;;22.30;57.30;;;;;;4896185;29;20445;-71
2022/12/22 16:01:10;;;;;;;2.43;1.60;;;22.30;57.30;;;;;;4886134;29;20478;-74
2022/12/22 16:03:40;;;;;;;3.10;2.37;;;22.40;57.20;;;;;;4890084;29;20492;-71
2022/12/22 16:06:13;;;;;;;2.00;1.90;;;22.40;57.20;;;;;;4896420;29;20489;-71
2022/12/22 16:08:44;;;;;;;2.33;2.13;;;22.40;57.30;;;;;;4895373;29;20533;-71
2022/12/22 16:11:12;;;;;;;3.33;2.90;;;22.40;57.30;;;;;;4895752;29;20565;-71
2022/12/22 16:13:41;;;;;;;3.70;2.20;;;22.40;57.10;;;;;;4895263;29;21270;-71
2022/12/22 16:16:10;;;;;;;2.70;2.03;;;22.40;57.10;;;;;;4895633;29;20461;-72
2022/12/22 16:18:39;;;;;;;1.77;1.67;;;22.40;57.10;;;;;;4896170;29;20423;-72
2022/12/22 16:21:13;;;;;;;5.40;1.67;;;22.40;57.10;;;;;;4896677;29;20844;-72
2022/12/22 16:23:44;;;;;;;3.03;2.40;;;22.40;57.00;;;;;;4890447;29;20462;-71
2022/12/22 16:26:16;;;;;;;2.73;1.30;;;22.40;57.10;;;;;;4879029;29;20535;-71
2022/12/22 16:28:44;;;;;;;2.60;1.60;;;22.40;57.00;;;;;;4879588;29;20960;-71
2022/12/22 16:31:20;;;;;;;2.73;1.47;;;22.40;57.00;;;;;;4879053;29;20527;-72
2022/12/22 16:33:49;;;;;;;3.03;2.23;;;22.40;56.90;;;;;;4879087;29;20425;-70
2022/12/22 16:36:18;;;;;;;2.97;2.07;;;22.40;56.90;;;;;;4888326;29;20456;-70
2022/12/22 16:38:47;;;;;;;2.97;2.10;;;22.40;57.00;;;;;;4897113;29;20551;-71
2022/12/22 16:41:22;;;;;;;4.50;2.30;;;22.40;56.90;;;;;;4897801;29;20464;-73
2022/12/22 16:43:52;;;;;;;2.53;1.63;;;22.40;56.90;;;;;;4896568;29;20445;-71
2022/12/22 16:46:39;;;;;;;2.60;1.60;;;22.40;57.00;;;;;;4897307;29;20460;-71
2022/12/22 16:49:08;;;;;;;2.73;1.80;;;22.30;56.90;;;;;;4897007;29;20852;-71
2022/12/22 16:51:44;;;;;;;4.47;1.90;;;22.30;57.00;;;;;;4898519;29;20467;-71
2022/12/22 16:54:14;;;;;;;2.10;1.50;;;22.30;57.00;;;;;;4897588;29;20513;-71
2022/12/22 16:56:45;;;;;;;3.43;1.83;;;22.30;57.00;;;;;;4897143;29;20901;-71
2022/12/22 16:59:13;;;;;;;2.67;1.97;;;22.30;57.00;;;;;;4893496;29;20458;-71